< < Back
Terminal Aerodrome Forecast


Current Version              Previous Versions:   1  2  3  4  5  6  7  8  9  

Terminal Aerodrome Forecast

698
FTUS42 KFFC 080733 AAA
TAFAHN
TAF AMD
KAHN 080733Z 0808/0906 27005KT P6SM BKN250
     FM081200 24004KT P6SM SCT035 BKN100
     FM081500 25007KT P6SM BKN035
     FM081800 26012G21KT P6SM SCT035 BKN050
      TEMPO 0819/0823 6SM -SHRA BKN035
     FM090000 30010G19KT P6SM OVC025 PROB30 0900/0906 6SM -SHSN
      BKN015=



Latest METAR

018
SAUS70 KWBC 080754
MTRAHN
METAR KAHN 080751Z AUTO 24004KT 10SM CLR 03/M05 A2992 RMK AO2 SLP132
T00331050


USA.gov is the U.S. government's official web portal to all federal, state and local government web resources and services.